createdAt,value
2023-04-09T00:02:05.626Z,99.90
2023-04-09T00:06:27.849Z,99.90
2023-04-09T00:10:51.316Z,99.90
2023-04-09T00:15:24.120Z,99.90
2023-04-09T00:19:52.952Z,99.90
2023-04-09T00:24:15.008Z,99.90
2023-04-09T00:28:37.733Z,99.90
2023-04-09T00:33:01.874Z,99.90
2023-04-09T00:37:23.977Z,99.90
2023-04-09T00:41:46.556Z,99.90
2023-04-09T00:46:08.727Z,99.90
2023-04-09T00:50:30.763Z,99.90
2023-04-09T00:54:53.258Z,99.90
2023-04-09T00:59:16.012Z,99.90
2023-04-09T01:03:38.603Z,99.90
2023-04-09T01:08:02.511Z,99.90
2023-04-09T01:12:43.423Z,99.90
2023-04-09T01:17:21.569Z,99.90
2023-04-09T01:21:45.746Z,99.90
2023-04-09T01:26:35.021Z,99.90
2023-04-09T01:31:07.759Z,99.90
2023-04-09T01:35:30.711Z,99.90
2023-04-09T01:39:52.982Z,99.90
2023-04-09T01:44:16.022Z,99.90
2023-04-09T01:48:38.225Z,99.90
2023-04-09T01:53:02.043Z,99.90
2023-04-09T01:57:24.385Z,99.90
2023-04-09T02:01:56.394Z,99.90
2023-04-09T02:06:43.129Z,99.90
2023-04-09T02:11:10.866Z,99.90
2023-04-09T02:15:36.633Z,99.90
2023-04-09T02:19:58.486Z,99.90
2023-04-09T02:24:20.642Z,99.90
2023-04-09T02:28:42.573Z,99.90
2023-04-09T02:33:04.703Z,99.90
2023-04-09T02:37:26.723Z,99.90
2023-04-09T02:41:48.883Z,99.90
2023-04-09T02:46:11.358Z,99.90
2023-04-09T02:50:33.694Z,99.90
2023-04-09T02:54:55.886Z,99.90
2023-04-09T02:59:18.205Z,99.90
2023-04-09T03:03:42.404Z,99.90
2023-04-09T03:08:07.813Z,99.90
2023-04-09T03:12:29.720Z,99.90
2023-04-09T03:16:51.827Z,99.90
2023-04-09T03:21:15.146Z,99.90
2023-04-09T03:25:42.277Z,99.90
2023-04-09T03:30:08.947Z,99.90
2023-04-09T03:34:37.647Z,99.90
2023-04-09T03:39:01.168Z,99.90
2023-04-09T03:43:27.647Z,99.90
2023-04-09T03:47:50.038Z,99.90
2023-04-09T03:52:16.428Z,99.90
2023-04-09T03:56:41.690Z,99.90
2023-04-09T04:01:07.146Z,99.90
2023-04-09T04:05:47.240Z,99.90
2023-04-09T04:10:11.544Z,99.90
2023-04-09T04:14:37.883Z,99.90
2023-04-09T04:19:10.724Z,99.90
2023-04-09T04:23:39.543Z,99.90
2023-04-09T04:28:15.063Z,99.90
2023-04-09T04:32:37.883Z,99.90
2023-04-09T04:37:04.081Z,99.90
2023-04-09T04:41:29.806Z,99.90
2023-04-09T04:46:19.386Z,99.90
2023-04-09T04:50:42.924Z,99.90
2023-04-09T04:55:05.803Z,99.90
2023-04-09T04:59:27.843Z,99.90
2023-04-09T05:04:09.684Z,99.90
2023-04-09T05:08:33.245Z,99.90
2023-04-09T05:12:56.405Z,99.90
2023-04-09T05:17:28.443Z,99.90
2023-04-09T05:21:50.988Z,99.90
2023-04-09T05:26:17.338Z,99.90
2023-04-09T05:30:48.736Z,99.90
2023-04-09T05:35:13.152Z,99.90
2023-04-09T05:39:38.725Z,99.90
2023-04-09T05:44:01.181Z,99.90
2023-04-09T05:48:24.469Z,99.90
2023-04-09T05:52:48.087Z,99.90
2023-04-09T05:57:12.369Z,99.90
2023-04-09T06:01:39.170Z,99.90
2023-04-09T06:06:01.787Z,99.90
2023-04-09T06:10:24.589Z,99.90
2023-04-09T06:14:51.289Z,99.90
2023-04-09T06:19:13.429Z,99.90
2023-04-09T06:23:36.817Z,99.90
2023-04-09T06:27:59.146Z,99.90
2023-04-09T06:32:21.217Z,99.90
2023-04-09T06:36:44.105Z,99.90
2023-04-09T06:41:08.596Z,99.90
2023-04-09T06:45:31.388Z,99.90
2023-04-09T06:49:53.327Z,99.90
2023-04-09T06:54:15.544Z,99.90
2023-04-09T06:58:37.764Z,99.90
2023-04-09T07:03:00.224Z,99.90
2023-04-09T07:07:24.287Z,99.90
2023-04-09T07:11:47.728Z,99.90
2023-04-09T07:16:10.020Z,99.90
2023-04-09T07:20:32.254Z,99.90
2023-04-09T07:24:55.128Z,99.90
2023-04-09T07:29:17.467Z,99.90
2023-04-09T07:33:39.472Z,99.90
2023-04-09T07:38:01.689Z,99.90
2023-04-09T07:42:23.796Z,94.10
2023-04-09T07:46:46.020Z,85.80
2023-04-09T07:51:07.898Z,69.10
2023-04-09T07:55:30.105Z,57.90
2023-04-09T07:59:53.742Z,52.00
2023-04-09T08:04:16.510Z,51.00
2023-04-09T08:08:39.005Z,47.70
2023-04-09T08:13:00.837Z,49.00
2023-04-09T08:17:23.538Z,47.90
2023-04-09T08:21:46.340Z,45.00
2023-04-09T08:26:08.670Z,42.90
2023-04-09T08:30:31.098Z,41.90
2023-04-09T08:34:52.965Z,41.30
2023-04-09T08:39:20.428Z,40.60
2023-04-09T08:43:57.156Z,39.50
2023-04-09T08:48:22.182Z,38.50
2023-04-09T08:52:50.516Z,39.40
2023-04-09T08:57:12.794Z,39.10
2023-04-09T09:01:34.832Z,38.40
2023-04-09T09:05:56.827Z,37.80
2023-04-09T09:10:18.941Z,37.00
2023-04-09T09:14:40.822Z,36.60
2023-04-09T09:19:03.635Z,35.60
2023-04-09T09:23:36.906Z,35.50
2023-04-09T09:28:12.596Z,36.10
2023-04-09T09:32:35.005Z,36.50
2023-04-09T09:36:57.249Z,36.00
2023-04-09T09:41:19.794Z,36.00
2023-04-09T09:45:43.735Z,36.10
2023-04-09T09:50:06.765Z,35.70
2023-04-09T09:54:40.131Z,36.10
2023-04-09T09:59:06.493Z,34.30
2023-04-09T10:03:32.426Z,37.50
2023-04-09T10:08:00.090Z,40.10
2023-04-09T10:12:26.142Z,41.90
2023-04-09T10:16:48.381Z,44.40
2023-04-09T10:21:17.898Z,46.20
2023-04-09T10:25:41.672Z,47.30
2023-04-09T10:30:05.511Z,48.40
2023-04-09T10:34:28.843Z,48.40
2023-04-09T10:38:51.785Z,48.70
2023-04-09T10:43:15.225Z,47.70
2023-04-09T10:47:40.220Z,44.70
2023-04-09T10:52:12.238Z,41.40
2023-04-09T10:56:34.817Z,40.50
2023-04-09T11:01:02.725Z,40.40
2023-04-09T11:05:36.681Z,40.80
2023-04-09T11:09:58.788Z,43.10
2023-04-09T11:14:21.845Z,42.80
2023-04-09T11:18:43.692Z,43.20
2023-04-09T11:23:06.202Z,45.80
2023-04-09T11:27:28.362Z,47.50
2023-04-09T11:31:50.834Z,47.20
2023-04-09T11:36:13.057Z,46.60
2023-04-09T11:40:35.547Z,49.60
2023-04-09T11:44:58.220Z,52.50
2023-04-09T11:49:21.205Z,55.50
2023-04-09T11:53:43.360Z,58.20
2023-04-09T11:58:05.424Z,57.00
2023-04-09T12:02:30.001Z,57.80
2023-04-09T12:06:57.765Z,57.60
2023-04-09T12:11:19.525Z,56.10
2023-04-09T12:15:43.774Z,56.40
2023-04-09T12:20:08.768Z,55.60
2023-04-09T12:24:31.124Z,55.30
2023-04-09T12:28:53.407Z,55.50
2023-04-09T12:33:15.620Z,58.30
2023-04-09T12:37:38.013Z,61.60
2023-04-09T12:41:59.923Z,63.80
2023-04-09T12:46:21.887Z,62.80
2023-04-09T12:50:44.262Z,61.00
2023-04-09T12:55:09.964Z,66.10
2023-04-09T12:59:32.185Z,64.70
2023-04-09T13:03:54.298Z,63.80
2023-04-09T13:08:16.824Z,65.20
2023-04-09T13:12:38.984Z,64.40
2023-04-09T13:17:01.166Z,63.00
2023-04-09T13:21:23.265Z,64.40
2023-04-09T13:25:45.441Z,65.60
2023-04-09T13:30:08.449Z,66.80
2023-04-09T13:34:30.489Z,67.80
2023-04-09T13:38:52.605Z,66.90
2023-04-09T13:43:14.968Z,65.00
2023-04-09T13:47:38.071Z,63.80
2023-04-09T13:52:00.426Z,60.10
2023-04-09T13:56:22.410Z,60.40
2023-04-09T14:00:44.570Z,59.80
2023-04-09T14:05:07.100Z,62.30
2023-04-09T14:09:30.424Z,65.70
2023-04-09T14:13:53.311Z,66.90
2023-04-09T14:18:15.781Z,68.40
2023-04-09T14:22:37.843Z,68.50
2023-04-09T14:27:00.052Z,68.80
2023-04-09T14:31:21.912Z,66.40
2023-04-09T14:35:44.312Z,66.50
2023-04-09T14:40:08.588Z,67.40
2023-04-09T14:44:31.879Z,68.40
2023-04-09T14:48:54.362Z,69.30
2023-04-09T14:53:17.216Z,70.00
2023-04-09T14:57:42.653Z,72.40
2023-04-09T15:02:04.922Z,73.90
2023-04-09T15:06:28.208Z,76.00
2023-04-09T15:10:51.131Z,78.00
2023-04-09T15:15:14.611Z,79.90
2023-04-09T15:19:39.770Z,78.60
2023-04-09T15:24:02.657Z,79.60
2023-04-09T15:28:24.764Z,81.20
2023-04-09T15:32:47.062Z,83.00
2023-04-09T15:37:09.102Z,85.30
2023-04-09T15:41:32.505Z,84.30
2023-04-09T15:45:54.688Z,86.10
2023-04-09T15:50:16.863Z,86.30
2023-04-09T15:54:38.868Z,82.10
2023-04-09T15:59:02.314Z,83.50
2023-04-09T16:03:25.063Z,83.30
2023-04-09T16:07:49.717Z,84.50
2023-04-09T16:12:11.645Z,84.50
2023-04-09T16:16:33.575Z,81.20
2023-04-09T16:20:58.312Z,82.40
2023-04-09T16:25:20.644Z,79.40
2023-04-09T16:29:43.547Z,78.80
2023-04-09T16:34:05.991Z,77.50
2023-04-09T16:38:29.262Z,79.90
2023-04-09T16:42:51.514Z,78.40
2023-04-09T16:47:13.349Z,80.70
2023-04-09T16:51:36.005Z,82.50
2023-04-09T16:55:58.257Z,84.90
2023-04-09T17:00:21.088Z,85.30
2023-04-09T17:04:43.928Z,87.20
2023-04-09T17:09:06.639Z,88.50
2023-04-09T17:13:30.516Z,89.60
2023-04-09T17:17:53.973Z,90.20
2023-04-09T17:22:18.632Z,90.90
2023-04-09T17:26:40.589Z,91.70
2023-04-09T17:31:02.782Z,93.10
2023-04-09T17:35:25.562Z,94.00
2023-04-09T17:39:47.868Z,94.70
2023-04-09T17:44:09.793Z,95.50
2023-04-09T17:48:32.183Z,97.00
2023-04-09T17:52:54.032Z,97.90
2023-04-09T17:57:16.087Z,98.70
2023-04-09T18:01:38.116Z,98.70
2023-04-09T18:06:00.945Z,98.60
2023-04-09T18:10:23.622Z,98.90
2023-04-09T18:14:53.023Z,98.90
2023-04-09T18:19:16.743Z,99.10
2023-04-09T18:23:40.590Z,99.70
2023-04-09T18:28:02.701Z,99.90
2023-04-09T18:32:25.581Z,99.90
2023-04-09T18:36:47.584Z,99.90
2023-04-09T18:41:11.425Z,99.90
2023-04-09T18:45:33.826Z,99.90
2023-04-09T18:49:55.616Z,99.90
2023-04-09T18:54:21.144Z,99.90
2023-04-09T18:58:43.342Z,99.90
2023-04-09T19:03:07.663Z,99.90
2023-04-09T19:07:30.347Z,99.90
2023-04-09T19:11:52.590Z,99.90
2023-04-09T19:17:09.359Z,99.90
2023-04-09T19:21:31.668Z,99.90
2023-04-09T19:25:55.821Z,99.90
2023-04-09T19:30:17.854Z,99.90
2023-04-09T19:34:40.070Z,99.90
2023-04-09T19:39:01.879Z,99.90
2023-04-09T19:43:23.784Z,99.90
2023-04-09T19:47:46.064Z,99.90
2023-04-09T19:52:08.495Z,99.90
2023-04-09T19:56:33.122Z,99.90
2023-04-09T20:00:55.616Z,99.90
2023-04-09T20:05:21.071Z,99.90
2023-04-09T20:09:43.727Z,99.90
2023-04-09T20:14:05.691Z,99.90
2023-04-09T20:18:28.845Z,99.90
2023-04-09T20:22:56.504Z,99.90
2023-04-09T20:27:18.863Z,99.90
2023-04-09T20:31:40.857Z,99.90
2023-04-09T20:36:03.134Z,99.90
2023-04-09T20:40:25.604Z,99.90
2023-04-09T20:44:47.423Z,99.90
2023-04-09T20:49:09.498Z,99.90
2023-04-09T20:53:31.642Z,99.90
2023-04-09T20:57:56.617Z,99.90
2023-04-09T21:02:18.970Z,99.90
2023-04-09T21:06:41.319Z,99.90
2023-04-09T21:11:03.587Z,99.90
2023-04-09T21:15:25.422Z,99.90
2023-04-09T21:19:49.467Z,99.90
2023-04-09T21:24:11.866Z,99.90
2023-04-09T21:28:33.668Z,99.90
2023-04-09T21:32:56.043Z,99.90
2023-04-09T21:37:18.310Z,99.90
2023-04-09T21:41:40.281Z,99.90
2023-04-09T21:46:03.256Z,99.90
2023-04-09T21:50:25.133Z,99.90
2023-04-09T21:54:47.074Z,99.90
2023-04-09T21:59:09.176Z,99.90
2023-04-09T22:03:31.483Z,99.90
2023-04-09T22:07:53.633Z,99.90
2023-04-09T22:12:15.612Z,99.90
2023-04-09T22:16:37.636Z,99.90
2023-04-09T22:20:59.635Z,99.90
2023-04-09T22:25:22.527Z,99.90
2023-04-09T22:29:44.677Z,99.90
2023-04-09T22:34:19.459Z,99.90
2023-04-09T22:38:43.113Z,99.90
2023-04-09T22:43:05.912Z,99.90
2023-04-09T22:47:27.811Z,99.90
2023-04-09T22:51:49.833Z,99.90
2023-04-09T22:56:11.776Z,99.90
2023-04-09T23:00:34.130Z,99.90
2023-04-09T23:04:56.258Z,99.90
2023-04-09T23:09:18.387Z,99.90
2023-04-09T23:13:40.795Z,99.90
2023-04-09T23:18:02.728Z,99.90
2023-04-09T23:22:26.445Z,99.90
2023-04-09T23:26:48.346Z,99.90
2023-04-09T23:31:10.186Z,99.90
2023-04-09T23:35:32.039Z,99.90
2023-04-09T23:39:54.725Z,99.90
2023-04-09T23:44:16.985Z,99.90
2023-04-09T23:48:38.606Z,99.90
2023-04-09T23:53:03.812Z,99.90
2023-04-09T23:57:26.486Z,99.90
